Time;durP1;ratioP1;P1;durP2;ratioP2;P2;SDS_P1;SDS_P2;PMS_P1;PMS_P2;Temp;Humidity;BMP_temperature;BMP_pressure;BME280_temperature;BME280_humidity;BME280_pressure;Samples;Min_cycle;Max_cycle;Signal;HPM_P1;HPM_P2
2023/07/20 00:00:38;;;;;;;1.83;1.73;;;;;;;15.63;100.00;100065.00;4978127;28;20670;-80
2023/07/20 00:03:12;;;;;;;2.70;1.73;;;;;;;15.64;100.00;100065.88;4977451;28;20232;-81
2023/07/20 00:05:39;;;;;;;3.83;2.00;;;;;;;15.68;100.00;100070.06;4977536;28;20682;-80
2023/07/20 00:08:05;;;;;;;3.50;2.77;;;;;;;15.59;100.00;100068.69;4977451;28;20626;-80
2023/07/20 00:10:32;;;;;;;3.57;2.10;;;;;;;15.52;100.00;100059.38;4978236;28;20213;-81
2023/07/20 00:12:58;;;;;;;3.33;2.23;;;;;;;15.51;100.00;100048.94;4986026;28;20238;-81
2023/07/20 00:15:25;;;;;;;3.77;1.90;;;;;;;15.48;100.00;100042.03;4959139;28;20210;-80
2023/07/20 00:17:52;;;;;;;2.80;1.90;;;;;;;15.61;100.00;100050.22;4978915;28;20264;-81
2023/07/20 00:20:19;;;;;;;3.10;2.30;;;;;;;15.63;100.00;100061.50;4961100;28;20246;-81
2023/07/20 00:22:45;;;;;;;2.57;1.77;;;;;;;15.71;100.00;100054.13;4963713;28;20240;-81
2023/07/20 00:25:12;;;;;;;2.93;1.60;;;;;;;15.74;100.00;100075.06;4985079;28;20440;-81
2023/07/20 00:27:38;;;;;;;4.60;1.70;;;;;;;15.88;100.00;100071.78;4958887;28;20233;-81
2023/07/20 00:30:06;;;;;;;3.83;2.10;;;;;;;16.00;100.00;100081.75;4958321;28;20741;-80
2023/07/20 00:32:32;;;;;;;3.47;2.03;;;;;;;16.10;100.00;100097.97;4958815;28;20218;-81
2023/07/20 00:35:00;;;;;;;3.33;1.90;;;;;;;16.02;98.42;100131.69;4957998;28;20257;-81
2023/07/20 00:37:26;;;;;;;3.97;1.43;;;;;;;16.08;97.83;100144.56;4957618;28;20216;-81
2023/07/20 00:39:54;;;;;;;3.70;1.50;;;;;;;16.07;97.48;100150.75;4958994;28;20246;-81
2023/07/20 00:42:20;;;;;;;3.30;1.70;;;;;;;16.01;98.08;100158.94;4976469;28;20601;-81
2023/07/20 00:44:46;;;;;;;1.70;1.60;;;;;;;15.97;98.25;100149.47;4977536;28;20674;-81
2023/07/20 00:47:13;;;;;;;5.10;1.63;;;;;;;15.75;98.62;100139.91;4979125;28;20207;-81
2023/07/20 00:49:40;;;;;;;5.37;1.67;;;;;;;15.68;100.00;100118.28;4979736;28;20207;-81
2023/07/20 00:52:09;;;;;;;3.67;2.00;;;;;;;15.59;100.00;100094.16;4978674;28;20222;-80
2023/07/20 00:54:36;;;;;;;3.20;1.70;;;;;;;15.43;100.00;100075.56;4974331;28;20674;-81
2023/07/20 00:57:03;;;;;;;4.40;1.97;;;;;;;15.34;100.00;100060.19;4990714;28;20293;-80
2023/07/20 00:59:30;;;;;;;3.03;1.83;;;;;;;15.40;100.00;100052.03;4957454;28;20216;-80
2023/07/20 01:01:56;;;;;;;4.17;1.90;;;;;;;15.51;100.00;100056.81;4957794;28;20243;-79
2023/07/20 01:04:23;;;;;;;2.40;1.80;;;;;;;15.40;100.00;100057.28;4976090;28;20210;-78
2023/07/20 01:06:58;;;;;;;3.70;1.90;;;;;;;15.34;100.00;100052.31;4976556;28;20211;-79
2023/07/20 01:09:32;;;;;;;2.43;2.20;;;;;;;15.19;100.00;100041.56;4982701;28;20210;-80
2023/07/20 01:12:05;;;;;;;3.07;2.10;;;;;;;15.15;100.00;100028.63;4957741;28;20229;-78
2023/07/20 01:14:32;;;;;;;4.70;2.50;;;;;;;15.05;100.00;100020.28;4957760;28;20210;-78
2023/07/20 01:16:59;;;;;;;6.53;2.33;;;;;;;15.04;100.00;100014.19;4957561;28;20233;-80
2023/07/20 01:19:25;;;;;;;3.97;2.40;;;;;;;15.22;100.00;100019.53;4957799;28;20227;-79
2023/07/20 01:21:58;;;;;;;2.50;1.80;;;;;;;15.28;100.00;100014.84;4957554;28;20254;-79
2023/07/20 01:24:51;;;;;;;2.13;1.53;;;;;;;15.57;100.00;100027.59;4957260;28;20215;-78
2023/07/20 01:27:37;;;;;;;4.83;1.53;;;;;;;15.77;100.00;100034.59;4974979;28;20207;-80
2023/07/20 01:30:24;;;;;;;3.07;1.63;;;;;;;15.87;100.00;100068.28;4963767;28;20208;-80
2023/07/20 01:32:55;;;;;;;3.80;1.53;;;;;;;15.93;100.00;100109.28;4969858;28;20230;-79
2023/07/20 01:35:26;;;;;;;3.80;1.80;;;;;;;15.97;99.34;100123.16;4976076;28;20217;-79
2023/07/20 01:37:54;;;;;;;4.97;1.93;;;;;;;15.76;98.26;100146.06;4975138;28;20203;-79
2023/07/20 01:40:22;;;;;;;3.80;1.30;;;;;;;15.86;98.35;100147.34;4981643;28;20269;-81
2023/07/20 01:42:48;;;;;;;3.37;1.63;;;;;;;15.72;98.63;100154.97;4956229;28;20305;-79
2023/07/20 01:45:14;;;;;;;4.30;1.70;;;;;;;15.52;99.89;100135.69;4956314;28;20202;-80
2023/07/20 01:47:41;;;;;;;2.83;1.70;;;;;;;15.63;100.00;100114.97;4957000;28;20207;-80
2023/07/20 01:50:09;;;;;;;3.90;2.10;;;;;;;15.68;100.00;100117.44;4957024;28;20207;-79
2023/07/20 01:52:36;;;;;;;8.43;2.00;;;;;;;15.85;99.81;100119.31;4967386;28;20222;-79
2023/07/20 01:55:04;;;;;;;3.90;1.83;;;;;;;15.70;99.36;100120.84;4975579;28;20211;-79
2023/07/20 01:57:30;;;;;;;3.60;1.80;;;;;;;15.56;99.34;100131.09;4978203;28;20277;-81
2023/07/20 01:59:57;;;;;;;2.87;1.47;;;;;;;15.57;100.00;100112.63;4966173;28;20676;-78
2023/07/20 02:02:27;;;;;;;1.80;1.63;;;;;;;15.55;99.91;100117.09;4956076;28;20241;-80
2023/07/20 02:04:53;;;;;;;1.40;1.30;;;;;;;15.66;100.00;100104.34;4956485;28;20214;-79
2023/07/20 02:07:21;;;;;;;2.10;1.67;;;;;;;15.87;100.00;100088.50;4956045;28;20208;-79
2023/07/20 02:09:47;;;;;;;3.57;1.30;;;;;;;15.99;100.00;100090.56;4969144;28;20205;-79
2023/07/20 02:12:14;;;;;;;1.93;1.40;;;;;;;15.92;98.07;100131.28;4975302;28;20222;-80
2023/07/20 02:14:40;;;;;;;2.53;1.30;;;;;;;15.92;97.91;100147.06;4976817;28;20618;-80
2023/07/20 02:17:07;;;;;;;3.33;1.23;;;;;;;15.63;98.29;100146.56;4963430;28;20682;-80
2023/07/20 02:19:33;;;;;;;9.70;2.60;;;;;;;15.48;99.37;100128.84;4956158;28;20216;-80
2023/07/20 02:22:00;;;;;;;4.77;1.67;;;;;;;15.33;100.00;100101.44;4956351;28;20237;-79
2023/07/20 02:24:27;;;;;;;1.67;1.53;;;;;;;15.29;100.00;100092.81;4955443;28;20661;-79
2023/07/20 02:26:54;;;;;;;2.10;1.40;;;;;;;15.14;100.00;100068.97;4969638;28;20202;-79
2023/07/20 02:29:20;;;;;;;2.53;1.80;;;;;;;15.26;100.00;100053.53;4975420;28;20684;-80
2023/07/20 02:31:47;;;;;;;2.47;1.20;;;;;;;15.50;100.00;100045.44;4975510;28;20317;-79
2023/07/20 02:34:13;;;;;;;3.60;1.20;;;;;;;15.67;100.00;100044.66;4975032;28;20253;-78
2023/07/20 02:36:42;;;;;;;7.23;1.87;;;;;;;15.70;100.00;100068.22;4974855;28;20262;-79
2023/07/20 02:39:08;;;;;;;8.60;1.33;;;;;;;15.87;100.00;100089.34;4974794;28;20209;-80
2023/07/20 02:41:36;;;;;;;4.40;1.90;;;;;;;15.81;99.24;100105.44;4978005;28;20233;-79
2023/07/20 02:44:03;;;;;;;3.33;1.40;;;;;;;15.95;99.94;100112.69;4978321;28;20226;-79
2023/07/20 02:46:30;;;;;;;3.07;1.67;;;;;;;15.93;98.93;100127.69;4978305;28;20212;-79
2023/07/20 02:48:57;;;;;;;3.73;1.80;;;;;;;16.04;98.82;100130.69;4978464;28;20582;-79
2023/07/20 02:51:23;;;;;;;4.23;1.67;;;;;;;16.14;98.33;100144.28;4984903;28;20234;-79
2023/07/20 02:53:49;;;;;;;2.43;1.20;;;;;;;16.23;97.76;100161.44;4958317;28;20260;-79
2023/07/20 02:56:17;;;;;;;3.33;1.40;;;;;;;16.31;98.29;100155.81;4959012;28;20205;-78
2023/07/20 02:58:46;;;;;;;2.80;1.50;;;;;;;16.35;98.10;100150.34;4959246;28;20292;-79
2023/07/20 03:01:13;;;;;;;2.97;1.30;;;;;;;16.39;97.35;100166.81;4958686;28;20817;-79
2023/07/20 03:03:39;;;;;;;3.07;1.43;;;;;;;16.42;97.41;100161.41;4977593;28;20277;-79
2023/07/20 03:06:05;;;;;;;2.07;1.37;;;;;;;16.41;96.65;100170.25;4978554;28;20202;-79
2023/07/20 03:08:32;;;;;;;6.10;1.40;;;;;;;16.36;95.73;100194.19;4977217;28;20214;-79
2023/07/20 03:10:59;;;;;;;1.77;1.10;;;;;;;16.37;95.80;100198.53;4978079;28;20202;-79
2023/07/20 03:13:25;;;;;;;2.07;1.27;;;;;;;16.40;96.00;100194.88;4977044;28;20555;-79
2023/07/20 03:15:54;;;;;;;3.20;1.40;;;;;;;16.36;95.76;100203.88;4978857;28;20206;-79
2023/07/20 03:18:20;;;;;;;1.90;1.20;;;;;;;16.41;96.17;100200.09;4977513;28;20210;-79
2023/07/20 03:20:48;;;;;;;2.73;1.20;;;;;;;16.46;95.81;100202.50;4978238;28;20261;-80
2023/07/20 03:23:15;;;;;;;7.77;1.77;;;;;;;16.44;95.76;100202.56;4977225;28;20231;-80
2023/07/20 03:25:41;;;;;;;1.90;1.00;;;;;;;16.47;95.87;100198.94;4969701;28;20624;-80
2023/07/20 03:28:08;;;;;;;2.43;1.00;;;;;;;16.45;95.94;100193.75;4977664;28;20224;-79
2023/07/20 03:30:35;;;;;;;4.20;1.10;;;;;;;16.44;95.84;100184.13;4977250;28;20246;-80
2023/07/20 03:33:03;;;;;;;3.63;0.90;;;;;;;16.45;95.79;100187.59;4977177;28;20224;-79
2023/07/20 03:35:31;;;;;;;1.70;0.90;;;;;;;16.46;95.93;100186.69;4976996;28;20211;-79
2023/07/20 03:37:57;;;;;;;3.10;0.93;;;;;;;16.50;96.58;100163.69;4979750;28;20218;-79
2023/07/20 03:40:24;;;;;;;7.67;1.43;;;;;;;16.53;96.84;100171.44;4957709;28;20215;-79
2023/07/20 03:42:50;;;;;;;1.40;0.90;;;;;;;16.55;96.58;100174.84;4969887;28;20286;-79
2023/07/20 03:45:17;;;;;;;2.57;0.83;;;;;;;16.55;95.48;100188.03;4976666;28;20666;-79
2023/07/20 03:47:44;;;;;;;2.47;0.90;;;;;;;16.55;93.99;100211.75;4969332;28;20230;-79
2023/07/20 03:50:12;;;;;;;1.53;0.83;;;;;;;16.50;93.86;100227.78;4983579;28;20234;-79
2023/07/20 03:52:38;;;;;;;1.17;0.80;;;;;;;16.52;93.89;100225.06;4976039;28;20230;-80
2023/07/20 03:55:05;;;;;;;2.83;1.00;;;;;;;16.48;94.15;100214.66;4982784;28;20210;-79
2023/07/20 03:57:33;;;;;;;3.33;0.93;;;;;;;16.48;94.67;100205.91;4960695;28;20706;-79
2023/07/20 03:59:59;;;;;;;1.37;1.27;;;;;;;16.56;96.28;100180.06;4957381;28;20661;-79
2023/07/20 04:02:25;;;;;;;3.20;1.03;;;;;;;16.61;96.44;100175.44;4973793;28;20764;-80
2023/07/20 04:04:52;;;;;;;7.27;0.87;;;;;;;16.62;95.38;100177.13;4976364;28;20211;-79
2023/07/20 04:07:20;;;;;;;2.70;0.87;;;;;;;16.63;94.24;100207.84;4975859;28;20285;-81
2023/07/20 04:09:46;;;;;;;2.50;0.70;;;;;;;16.62;93.25;100227.19;4968596;28;20650;-81
2023/07/20 04:12:12;;;;;;;2.80;0.90;;;;;;;16.61;93.10;100237.81;4977128;28;20231;-80
2023/07/20 04:14:39;;;;;;;2.27;0.80;;;;;;;16.59;93.11;100237.91;4976225;28;20215;-81
2023/07/20 04:17:05;;;;;;;2.70;1.00;;;;;;;16.59;93.18;100237.91;4975993;28;20210;-79
2023/07/20 04:19:31;;;;;;;1.50;0.70;;;;;;;16.58;93.48;100233.53;4976920;28;20551;-79
2023/07/20 04:21:58;;;;;;;1.93;0.90;;;;;;;16.63;93.86;100233.31;4976191;28;20241;-80
2023/07/20 04:24:26;;;;;;;3.10;1.40;;;;;;;16.51;92.99;100233.91;4975405;28;20259;-79
2023/07/20 04:26:52;;;;;;;2.70;1.10;;;;;;;16.26;92.27;100258.75;4961179;28;20207;-79
2023/07/20 04:29:18;;;;;;;1.83;1.00;;;;;;;16.13;93.10;100250.53;4975549;28;20214;-79
2023/07/20 04:31:45;;;;;;;1.00;0.80;;;;;;;16.02;93.60;100242.28;4975650;28;20229;-79
2023/07/20 04:34:11;;;;;;;2.30;1.20;;;;;;;15.89;94.52;100221.75;4976367;28;20209;-79
2023/07/20 04:36:38;;;;;;;2.53;1.23;;;;;;;15.71;94.96;100214.63;4977448;28;20218;-79
2023/07/20 04:39:04;;;;;;;2.53;1.00;;;;;;;15.79;97.56;100177.50;4979105;28;20202;-80
2023/07/20 04:41:32;;;;;;;7.30;1.20;;;;;;;15.73;98.16;100160.19;4980704;28;20242;-79
2023/07/20 04:43:58;;;;;;;1.67;1.40;;;;;;;15.78;99.20;100137.16;4995160;23;20214;-77
2023/07/20 04:46:25;;;;;;;2.60;1.27;;;;;;;15.73;100.00;100109.34;4975739;28;20225;-80
2023/07/20 04:48:51;;;;;;;5.90;1.67;;;;;;;15.76;100.00;100082.91;4977305;28;20221;-80
2023/07/20 04:51:20;;;;;;;4.33;1.30;;;;;;;15.94;100.00;100086.47;4977951;28;20211;-80
2023/07/20 04:53:47;;;;;;;2.60;1.37;;;;;;;16.08;100.00;100091.91;4977494;28;20202;-81
2023/07/20 04:56:15;;;;;;;3.90;1.70;;;;;;;16.18;100.00;100074.75;4977958;28;20212;-80
2023/07/20 04:58:42;;;;;;;2.47;1.90;;;;;;;16.20;100.00;100083.44;4972632;28;20605;-80
2023/07/20 05:01:09;;;;;;;3.70;1.53;;;;;;;15.85;100.00;100093.81;4977155;28;20209;-79
2023/07/20 05:03:35;;;;;;;3.60;1.77;;;;;;;15.47;100.00;100082.41;4976836;28;20286;-79
2023/07/20 05:06:02;;;;;;;6.37;1.60;;;;;;;15.46;100.00;100063.16;4976130;28;20229;-80
2023/07/20 05:08:28;;;;;;;4.70;1.97;;;;;;;15.47;100.00;100050.84;4976017;28;20587;-80
2023/07/20 05:10:55;;;;;;;3.57;1.60;;;;;;;15.28;100.00;100051.69;4977122;28;20209;-79
2023/07/20 05:13:21;;;;;;;4.23;2.30;;;;;;;15.17;100.00;100032.03;4976558;28;20683;-79
2023/07/20 05:15:52;;;;;;;5.83;1.90;;;;;;;15.29;100.00;100015.72;4974991;28;20256;-81
2023/07/20 05:18:20;;;;;;;3.37;1.70;;;;;;;15.36;100.00;100018.91;4973715;28;20209;-80
2023/07/20 05:20:46;;;;;;;5.67;1.90;;;;;;;15.28;100.00;100019.25;4980426;28;20218;-81
2023/07/20 05:23:13;;;;;;;2.67;1.60;;;;;;;15.23;100.00;100023.88;4980101;28;20231;-81
2023/07/20 05:25:39;;;;;;;2.63;1.87;;;;;;;14.84;100.00;100015.03;4977641;28;20281;-79
2023/07/20 05:28:06;;;;;;;2.87;1.90;;;;;;;14.57;100.00;99989.94;4975686;28;20253;-80
2023/07/20 05:30:33;;;;;;;2.37;1.27;;;;;;;14.80;100.00;99983.72;4976505;28;20209;-80
2023/07/20 05:33:00;;;;;;;1.93;1.23;;;;;;;14.77;100.00;99997.84;4970916;28;20304;-81
2023/07/20 05:35:27;;;;;;;1.37;1.27;;;;;;;14.80;100.00;100018.72;4956806;28;20237;-80
2023/07/20 05:37:54;;;;;;;1.87;1.00;;;;;;;14.91;100.00;100027.94;4968278;28;20227;-80
2023/07/20 05:40:21;;;;;;;2.03;1.17;;;;;;;14.54;100.00;100051.31;4975678;28;20221;-80
2023/07/20 05:42:47;;;;;;;1.90;1.20;;;;;;;14.44;100.00;100042.13;4974831;28;20206;-80
2023/07/20 05:45:15;;;;;;;1.80;1.30;;;;;;;14.41;100.00;100027.34;4975473;28;20743;-80
2023/07/20 05:47:42;;;;;;;1.20;1.10;;;;;;;14.42;100.00;100026.41;4974964;28;20216;-80
2023/07/20 05:50:11;;;;;;;0.90;0.90;;;;;;;14.67;100.00;100026.28;4975654;28;20205;-79
2023/07/20 05:52:38;;;;;;;1.40;1.30;;;;;;;14.74;100.00;100036.53;4974518;28;20209;-80
2023/07/20 05:55:06;;;;;;;1.10;1.07;;;;;;;14.78;100.00;100035.47;4974327;28;20230;-80
2023/07/20 05:57:32;;;;;;;1.10;1.00;;;;;;;14.94;100.00;100054.91;4973982;28;20240;-80
2023/07/20 05:59:59;;;;;;;3.07;1.47;;;;;;;14.83;100.00;100073.78;4971550;28;20221;-79
2023/07/20 06:02:25;;;;;;;1.70;1.33;;;;;;;14.82;100.00;100073.84;4974917;28;20211;-79
2023/07/20 06:04:51;;;;;;;2.10;1.40;;;;;;;14.64;100.00;100076.31;4979242;28;20232;-81
2023/07/20 06:07:19;;;;;;;1.50;1.40;;;;;;;14.47;100.00;100055.97;4967632;28;20561;-79
2023/07/20 06:09:46;;;;;;;1.63;1.53;;;;;;;14.16;100.00;100021.41;4957606;28;20214;-79
2023/07/20 06:12:12;;;;;;;2.43;2.23;;;;;;;14.10;100.00;99988.38;4981077;28;20258;-81
2023/07/20 06:14:39;;;;;;;2.67;2.47;;;;;;;14.05;100.00;99978.06;4965018;28;20227;-80
2023/07/20 06:17:06;;;;;;;2.43;2.33;;;;;;;14.35;100.00;99975.09;4975029;28;20256;-81
2023/07/20 06:19:32;;;;;;;2.93;2.73;;;;;;;14.56;100.00;99991.72;4980044;28;20280;-80
2023/07/20 06:21:59;;;;;;;3.20;2.90;;;;;;;14.69;100.00;99992.91;4961657;28;20202;-79
2023/07/20 06:24:26;;;;;;;5.10;3.23;;;;;;;14.74;100.00;99990.09;4960722;28;20276;-78
2023/07/20 06:26:53;;;;;;;3.37;3.17;;;;;;;14.82;100.00;100011.63;4961061;28;20219;-80
2023/07/20 06:29:19;;;;;;;3.40;3.20;;;;;;;14.69;100.00;100024.44;4961259;28;20256;-81
2023/07/20 06:31:45;;;;;;;3.23;3.03;;;;;;;14.62;100.00;100025.63;4981688;28;20687;-81
2023/07/20 06:34:12;;;;;;;3.67;3.43;;;;;;;14.61;100.00;100023.06;4982362;28;20220;-80
2023/07/20 06:36:38;;;;;;;3.40;3.20;;;;;;;14.76;100.00;100029.44;4986639;28;20215;-81
2023/07/20 06:39:05;;;;;;;3.47;3.27;;;;;;;14.87;100.00;100041.19;4972886;28;20696;-81
2023/07/20 06:41:33;;;;;;;3.20;3.00;;;;;;;14.86;100.00;100057.88;4979983;28;20223;-81
2023/07/20 06:43:59;;;;;;;3.43;3.23;;;;;;;15.05;100.00;100065.81;4980161;28;20662;-82
2023/07/20 06:46:26;;;;;;;2.53;2.43;;;;;;;15.17;100.00;100082.00;4980002;28;20218;-82
2023/07/20 06:48:53;;;;;;;5.10;3.50;;;;;;;15.29;100.00;100091.97;4977797;28;20274;-82
2023/07/20 06:51:20;;;;;;;2.97;2.73;;;;;;;15.32;100.00;100106.75;4961012;28;20209;-81
2023/07/20 06:53:46;;;;;;;4.63;3.70;;;;;;;15.51;100.00;100114.69;4960177;28;20214;-81
2023/07/20 06:56:13;;;;;;;2.80;2.60;;;;;;;15.41;100.00;100125.59;4961126;28;20213;-82
2023/07/20 06:58:41;;;;;;;3.20;2.57;;;;;;;15.61;100.00;100131.75;4961379;28;20205;-82
2023/07/20 07:01:08;;;;;;;2.83;2.63;;;;;;;15.67;100.00;100142.00;4961216;28;20209;-83
2023/07/20 07:03:34;;;;;;;2.43;2.33;;;;;;;15.34;100.00;100168.91;4977316;28;20264;-80
2023/07/20 07:06:01;;;;;;;2.87;2.67;;;;;;;14.93;100.00;100132.06;4982877;28;20653;-81
2023/07/20 07:08:27;;;;;;;3.73;2.90;;;;;;;14.85;100.00;100108.72;4968272;28;20567;-79
2023/07/20 07:10:54;;;;;;;2.77;2.60;;;;;;;14.93;100.00;100092.66;4960968;28;20214;-82
2023/07/20 07:13:20;;;;;;;2.90;2.60;;;;;;;15.04;100.00;100090.41;4961569;28;20591;-79
2023/07/20 07:15:48;;;;;;;3.23;2.97;;;;;;;15.15;100.00;100102.25;4960960;28;20296;-80
2023/07/20 07:18:14;;;;;;;3.50;3.20;;;;;;;15.20;100.00;100114.28;4981106;28;20612;-81
2023/07/20 07:20:41;;;;;;;3.13;2.67;;;;;;;15.26;100.00;100142.94;4985598;28;20285;-80
2023/07/20 07:23:07;;;;;;;2.63;2.53;;;;;;;15.24;100.00;100152.66;4976359;28;20218;-79
2023/07/20 07:25:34;;;;;;;2.67;2.40;;;;;;;15.29;100.00;100170.84;4979038;28;20227;-81
2023/07/20 07:28:00;;;;;;;2.50;2.30;;;;;;;15.41;100.00;100169.47;4985466;28;20240;-81
2023/07/20 07:30:26;;;;;;;2.33;2.17;;;;;;;15.58;100.00;100169.59;4981076;28;20247;-80
2023/07/20 07:32:54;;;;;;;2.20;2.10;;;;;;;15.45;100.00;100203.47;4978963;28;20209;-79
2023/07/20 07:35:22;;;;;;;2.30;2.20;;;;;;;15.45;100.00;100216.63;4973377;28;20649;-80
2023/07/20 07:37:48;;;;;;;2.50;2.40;;;;;;;15.67;100.00;100200.75;4972778;28;20731;-81
2023/07/20 07:40:15;;;;;;;2.87;2.67;;;;;;;15.88;100.00;100209.53;4972970;28;20205;-81
2023/07/20 07:42:41;;;;;;;2.97;2.77;;;;;;;16.06;100.00;100263.13;4971248;28;20218;-82
2023/07/20 07:45:09;;;;;;;3.03;2.93;;;;;;;16.07;100.00;100312.25;4972853;28;20233;-81
2023/07/20 07:47:35;;;;;;;3.40;3.10;;;;;;;16.20;100.00;100307.28;4974532;28;20207;-80
2023/07/20 07:50:03;;;;;;;2.90;2.80;;;;;;;16.17;99.29;100325.84;4977500;28;20209;-81
2023/07/20 07:52:30;;;;;;;2.77;2.67;;;;;;;16.08;96.39;100389.47;4983023;28;20245;-79
2023/07/20 07:54:56;;;;;;;3.03;2.83;;;;;;;16.01;96.04;100402.00;4977077;28;20230;-80
2023/07/20 07:57:22;;;;;;;2.37;2.27;;;;;;;16.08;95.30;100421.06;4978068;28;20217;-80
2023/07/20 07:59:50;;;;;;;2.23;2.13;;;;;;;16.21;96.17;100417.00;4977050;28;20213;-80
2023/07/20 08:02:16;;;;;;;2.90;2.80;;;;;;;16.33;96.63;100412.94;4977802;28;20216;-80
2023/07/20 08:04:42;;;;;;;2.70;2.50;;;;;;;16.26;94.35;100422.06;4977777;28;20234;-81
2023/07/20 08:07:10;;;;;;;2.27;2.17;;;;;;;16.52;94.56;100442.00;4977977;28;20206;-80
2023/07/20 08:09:37;;;;;;;3.00;2.80;;;;;;;16.38;94.92;100424.16;4978642;28;20210;-81
2023/07/20 08:12:04;;;;;;;2.40;2.20;;;;;;;16.54;95.46;100415.59;4982962;28;20256;-80
2023/07/20 08:14:30;;;;;;;2.60;2.37;;;;;;;16.77;94.07;100422.44;4973264;28;20231;-80
2023/07/20 08:16:56;;;;;;;1.97;1.87;;;;;;;16.95;90.66;100478.84;4983899;28;20206;-81
2023/07/20 08:19:23;;;;;;;2.00;1.90;;;;;;;16.91;88.94;100528.19;4964034;28;20631;-81
2023/07/20 08:21:50;;;;;;;2.53;2.33;;;;;;;16.68;92.27;100511.56;4977540;28;20218;-80
2023/07/20 08:24:17;;;;;;;2.53;2.33;;;;;;;16.43;93.73;100466.09;4977181;28;20235;-80
2023/07/20 08:26:44;;;;;;;3.13;2.47;;;;;;;16.56;94.43;100435.66;4978144;28;20211;-81
2023/07/20 08:29:10;;;;;;;2.37;2.17;;;;;;;16.63;92.16;100452.94;4982234;28;20251;-80
2023/07/20 08:31:37;;;;;;;1.77;1.67;;;;;;;16.84;90.33;100477.50;4974179;28;20214;-81
2023/07/20 08:34:03;;;;;;;2.10;1.70;;;;;;;17.05;89.07;100536.34;4978037;28;20226;-81
2023/07/20 08:36:31;;;;;;;1.60;1.50;;;;;;;17.09;87.00;100568.72;4983321;28;20233;-82
2023/07/20 08:38:57;;;;;;;1.90;1.80;;;;;;;17.05;84.81;100620.75;4958762;28;20215;-81
2023/07/20 08:41:25;;;;;;;1.97;1.80;;;;;;;17.07;82.33;100674.28;4958294;28;20214;-81
2023/07/20 08:43:56;;;;;;;1.80;1.70;;;;;;;17.03;85.90;100648.97;4957874;28;20691;-80
2023/07/20 08:46:29;;;;;;;2.23;2.13;;;;;;;17.07;81.61;100700.66;4959386;28;20625;-81
2023/07/20 08:48:57;;;;;;;3.00;2.00;;;;;;;16.96;79.96;100741.59;4957510;28;20270;-81
2023/07/20 08:51:25;;;;;;;2.23;2.13;;;;;;;17.21;81.54;100736.19;4961536;28;20199;-83
2023/07/20 08:53:53;;;;;;;2.37;2.10;;;;;;;17.16;81.49;100707.31;4959461;28;20216;-82
2023/07/20 08:56:20;;;;;;;1.80;1.67;;;;;;;17.18;76.99;100795.19;4970897;28;20207;-82
2023/07/20 08:58:49;;;;;;;1.63;1.50;;;;;;;17.42;79.05;100793.34;4978575;28;20215;-81
2023/07/20 09:01:15;;;;;;;2.13;2.03;;;;;;;17.52;76.45;100833.41;4973403;28;20208;-81
2023/07/20 09:03:43;;;;;;;1.70;1.60;;;;;;;17.45;75.67;100851.25;4959410;28;20207;-81
2023/07/20 09:06:10;;;;;;;2.40;1.93;;;;;;;17.47;76.12;100867.03;4970394;28;20231;-82
2023/07/20 09:08:39;;;;;;;1.90;1.80;;;;;;;17.42;74.52;100883.06;4977622;28;20242;-81
2023/07/20 09:11:05;;;;;;;1.70;1.60;;;;;;;17.53;72.94;100916.94;4978690;28;20686;-82
2023/07/20 09:13:33;;;;;;;1.33;1.20;;;;;;;17.70;72.23;100954.97;4977642;28;20704;-81
2023/07/20 09:16:01;;;;;;;2.33;1.23;;;;;;;17.81;71.64;100968.63;4977781;28;20226;-82
2023/07/20 09:18:29;;;;;;;1.20;1.20;;;;;;;17.76;69.24;101007.53;4978598;28;20215;-81
2023/07/20 09:21:00;;;;;;;1.20;1.10;;;;;;;17.77;71.39;101015.41;4977756;28;20239;-82
2023/07/20 09:23:32;;;;;;;1.57;1.50;;;;;;;17.76;73.14;100949.44;4978369;28;20235;-81
2023/07/20 09:25:58;;;;;;;1.50;1.40;;;;;;;17.64;72.13;100938.50;4977747;28;20255;-83
2023/07/20 09:28:25;;;;;;;1.20;1.10;;;;;;;17.63;70.78;100963.16;4977761;28;20214;-82
2023/07/20 09:30:51;;;;;;;2.03;1.40;;;;;;;17.66;67.76;101039.63;4986099;28;20624;-82
2023/07/20 09:33:23;;;;;;;1.30;1.30;;;;;;;17.85;68.02;101063.53;4959170;28;20208;-82
2023/07/20 09:35:50;;;;;;;1.10;1.10;;;;;;;17.82;64.75;101108.53;4958816;28;20232;-82
2023/07/20 09:38:16;;;;;;;1.30;1.20;;;;;;;17.87;67.84;101108.38;4963043;28;20218;-82
2023/07/20 09:40:43;;;;;;;1.03;1.03;;;;;;;17.83;66.66;101128.75;4978934;28;20211;-82
2023/07/20 09:43:10;;;;;;;1.23;1.20;;;;;;;17.71;65.78;101145.03;4977963;28;20294;-83
2023/07/20 09:45:41;;;;;;;0.80;0.80;;;;;;;17.82;63.94;101173.72;4977753;28;20235;-82
2023/07/20 09:48:08;;;;;;;1.00;1.00;;;;;;;17.97;63.56;101217.19;4977426;28;20224;-82
2023/07/20 09:50:41;;;;;;;1.50;1.10;;;;;;;18.17;63.33;101224.38;4982759;28;20217;-80
2023/07/20 09:53:08;;;;;;;0.70;0.70;;;;;;;18.19;58.80;101317.66;4958539;28;20212;-80
2023/07/20 09:55:36;;;;;;;0.80;0.77;;;;;;;18.42;59.57;101348.53;4966422;28;20231;-80
2023/07/20 09:58:06;;;;;;;0.90;0.90;;;;;;;18.50;59.18;101327.97;4957871;28;20215;-81
2023/07/20 10:00:35;;;;;;;2.17;1.23;;;;;;;18.63;60.02;101339.81;4956602;28;20239;-80
2023/07/20 10:03:04;;;;;;;0.90;0.90;;;;;;;18.35;60.24;101329.38;4975481;28;20217;-80
2023/07/20 10:05:34;;;;;;;1.57;0.90;;;;;;;18.39;62.34;101295.78;4976328;28;20269;-79
2023/07/20 10:08:05;;;;;;;0.80;0.80;;;;;;;18.30;59.83;101314.66;4977070;28;20642;-80
2023/07/20 10:10:33;;;;;;;0.70;0.70;;;;;;;18.08;58.10;101365.63;4976540;28;20216;-80
2023/07/20 10:13:02;;;;;;;1.27;0.80;;;;;;;18.21;58.79;101361.59;4976640;28;20211;-80
2023/07/20 10:15:34;;;;;;;0.70;0.70;;;;;;;18.27;58.70;101379.03;4975715;28;20231;-79
2023/07/20 10:18:04;;;;;;;0.83;0.83;;;;;;;18.33;58.33;101377.94;4983409;28;20215;-79
2023/07/20 10:20:33;;;;;;;1.00;1.00;;;;;;;18.63;59.78;101352.16;4961616;28;20215;-80
2023/07/20 10:23:01;;;;;;;1.00;1.00;;;;;;;18.95;61.41;101308.63;4975387;28;20207;-82
2023/07/20 10:25:29;;;;;;;0.90;0.67;;;;;;;18.71;52.71;101455.91;4975955;28;20241;-78
2023/07/20 10:27:58;;;;;;;0.70;0.70;;;;;;;18.89;55.13;101464.97;4977442;28;20218;-81
2023/07/20 10:30:26;;;;;;;0.70;0.70;;;;;;;19.04;55.50;101450.28;4971321;28;20264;-81
2023/07/20 10:32:53;;;;;;;1.00;1.00;;;;;;;19.16;56.36;101430.41;4957002;28;20212;-78
2023/07/20 10:35:20;;;;;;;0.50;0.50;;;;;;;19.21;53.55;101455.78;4956570;28;20220;-79
2023/07/20 10:37:47;;;;;;;1.83;0.63;;;;;;;19.37;52.48;101508.16;4956315;28;20224;-79
2023/07/20 10:40:33;;;;;;;0.57;0.57;;;;;;;19.30;52.86;101526.03;4956642;28;20224;-80
2023/07/20 10:43:01;;;;;;;1.17;0.90;;;;;;;19.32;51.46;101558.63;4956189;28;20622;-80
2023/07/20 10:45:35;;;;;;;0.80;0.70;;;;;;;19.43;51.43;101595.31;4989388;23;20243;-79
2023/07/20 10:48:05;;;;;;;0.57;0.57;;;;;;;19.51;50.87;101595.88;4974255;28;20741;-81
2023/07/20 10:50:33;;;;;;;0.77;0.60;;;;;;;19.73;52.03;101569.44;4968625;28;20649;-80
2023/07/20 10:53:06;;;;;;;0.60;0.60;;;;;;;19.15;51.67;101600.75;4956375;28;20220;-81
2023/07/20 10:55:34;;;;;;;0.63;0.63;;;;;;;19.23;54.05;101559.00;4960467;28;20228;-81
2023/07/20 10:58:19;;;;;;;0.70;0.60;;;;;;;19.32;51.82;101542.75;4975165;28;20209;-80
2023/07/20 11:00:59;;;;;;;0.97;0.53;;;;;;;19.49;51.26;101570.38;4975481;28;20205;-84
2023/07/20 11:03:30;;;;;;;0.90;0.63;;;;;;;19.67;50.94;101580.25;4978209;28;20219;-82
2023/07/20 11:05:58;;;;;;;0.77;0.50;;;;;;;19.59;50.62;101569.09;4977838;28;20244;-86
2023/07/20 11:08:41;;;;;;;1.13;0.60;;;;;;;19.74;52.07;101559.72;4977431;28;20243;-86
2023/07/20 11:11:25;;;;;;;0.60;0.60;;;;;;;19.57;51.34;101549.75;4978431;28;20654;-81
2023/07/20 11:13:59;;;;;;;0.60;0.60;;;;;;;19.63;52.09;101533.63;4977823;28;20295;-82
2023/07/20 11:16:41;;;;;;;0.77;0.70;;;;;;;19.64;51.44;101520.31;4978829;28;20227;-84
2023/07/20 11:19:15;;;;;;;0.50;0.50;;;;;;;19.50;50.55;101553.56;4977778;28;20535;-84
2023/07/20 11:21:43;;;;;;;0.73;0.60;;;;;;;19.61;51.31;101531.03;4977575;28;20242;-84
2023/07/20 11:24:10;;;;;;;1.23;0.60;;;;;;;19.68;51.74;101534.28;4976730;28;20204;-79